sensor_id;sensor_type;location;lat;lon;timestamp;P1;durP1;ratioP1;P2;durP2;ratioP2
55762;SDS011;42162;51.958;5.426;2024-03-25T00:01:49;11.73;;;2.25;;
55762;SDS011;42162;51.958;5.426;2024-03-25T00:04:15;12.27;;;2.15;;
55762;SDS011;42162;51.958;5.426;2024-03-25T00:06:41;9.00;;;2.40;;
55762;SDS011;42162;51.958;5.426;2024-03-25T00:09:08;10.27;;;2.25;;
55762;SDS011;42162;51.958;5.426;2024-03-25T00:11:40;7.15;;;2.40;;
55762;SDS011;42162;51.958;5.426;2024-03-25T00:14:07;11.75;;;3.17;;
55762;SDS011;42162;51.958;5.426;2024-03-25T00:16:33;8.70;;;2.65;;
55762;SDS011;42162;51.958;5.426;2024-03-25T00:19:00;11.00;;;2.33;;
55762;SDS011;42162;51.958;5.426;2024-03-25T00:21:27;12.27;;;2.25;;
55762;SDS011;42162;51.958;5.426;2024-03-25T00:23:53;20.88;;;3.72;;
55762;SDS011;42162;51.958;5.426;2024-03-25T00:26:22;20.77;;;2.88;;
55762;SDS011;42162;51.958;5.426;2024-03-25T00:28:49;22.02;;;3.25;;
55762;SDS011;42162;51.958;5.426;2024-03-25T00:31:15;13.45;;;2.40;;
55762;SDS011;42162;51.958;5.426;2024-03-25T00:33:41;11.40;;;2.53;;
55762;SDS011;42162;51.958;5.426;2024-03-25T00:36:07;11.35;;;2.65;;
55762;SDS011;42162;51.958;5.426;2024-03-25T00:38:33;13.35;;;2.67;;
55762;SDS011;42162;51.958;5.426;2024-03-25T00:40:59;14.10;;;3.15;;
55762;SDS011;42162;51.958;5.426;2024-03-25T00:43:25;14.38;;;2.53;;
55762;SDS011;42162;51.958;5.426;2024-03-25T00:45:51;16.90;;;2.85;;
55762;SDS011;42162;51.958;5.426;2024-03-25T00:48:17;15.07;;;3.45;;
55762;SDS011;42162;51.958;5.426;2024-03-25T00:50:43;15.25;;;2.65;;
55762;SDS011;42162;51.958;5.426;2024-03-25T00:53:09;10.65;;;2.65;;
55762;SDS011;42162;51.958;5.426;2024-03-25T00:55:35;13.90;;;3.60;;
55762;SDS011;42162;51.958;5.426;2024-03-25T00:58:02;13.75;;;3.45;;
55762;SDS011;42162;51.958;5.426;2024-03-25T01:00:28;26.38;;;3.80;;
55762;SDS011;42162;51.958;5.426;2024-03-25T01:02:54;17.15;;;3.05;;
55762;SDS011;42162;51.958;5.426;2024-03-25T01:05:20;16.45;;;3.15;;
55762;SDS011;42162;51.958;5.426;2024-03-25T01:07:46;23.33;;;3.50;;
55762;SDS011;42162;51.958;5.426;2024-03-25T01:10:12;19.60;;;2.90;;
55762;SDS011;42162;51.958;5.426;2024-03-25T01:12:41;14.07;;;2.83;;
55762;SDS011;42162;51.958;5.426;2024-03-25T01:15:08;15.48;;;3.15;;
55762;SDS011;42162;51.958;5.426;2024-03-25T01:17:36;20.42;;;3.13;;
55762;SDS011;42162;51.958;5.426;2024-03-25T01:20:03;13.68;;;3.20;;
55762;SDS011;42162;51.958;5.426;2024-03-25T01:22:30;25.42;;;3.53;;
55762;SDS011;42162;51.958;5.426;2024-03-25T01:24:57;12.02;;;3.10;;
55762;SDS011;42162;51.958;5.426;2024-03-25T01:27:23;12.40;;;2.92;;
55762;SDS011;42162;51.958;5.426;2024-03-25T01:29:49;17.40;;;3.42;;
55762;SDS011;42162;51.958;5.426;2024-03-25T01:32:15;12.50;;;3.00;;
55762;SDS011;42162;51.958;5.426;2024-03-25T01:34:41;19.65;;;3.10;;
55762;SDS011;42162;51.958;5.426;2024-03-25T01:37:10;14.82;;;3.67;;
55762;SDS011;42162;51.958;5.426;2024-03-25T01:39:37;13.57;;;3.22;;
55762;SDS011;42162;51.958;5.426;2024-03-25T01:42:04;11.75;;;2.97;;
55762;SDS011;42162;51.958;5.426;2024-03-25T01:44:31;16.55;;;3.28;;
55762;SDS011;42162;51.958;5.426;2024-03-25T01:47:00;14.25;;;3.10;;
55762;SDS011;42162;51.958;5.426;2024-03-25T01:49:29;13.43;;;3.00;;
55762;SDS011;42162;51.958;5.426;2024-03-25T01:51:55;29.05;;;2.92;;
55762;SDS011;42162;51.958;5.426;2024-03-25T01:54:26;20.00;;;3.47;;
55762;SDS011;42162;51.958;5.426;2024-03-25T01:56:52;12.95;;;2.92;;
55762;SDS011;42162;51.958;5.426;2024-03-25T01:59:23;17.80;;;3.30;;
55762;SDS011;42162;51.958;5.426;2024-03-25T02:01:54;14.90;;;2.72;;
55762;SDS011;42162;51.958;5.426;2024-03-25T02:04:21;13.23;;;2.75;;
55762;SDS011;42162;51.958;5.426;2024-03-25T02:06:47;10.00;;;2.50;;
55762;SDS011;42162;51.958;5.426;2024-03-25T02:09:17;16.50;;;3.80;;
55762;SDS011;42162;51.958;5.426;2024-03-25T02:11:44;13.65;;;3.15;;
55762;SDS011;42162;51.958;5.426;2024-03-25T02:14:11;17.50;;;3.55;;
55762;SDS011;42162;51.958;5.426;2024-03-25T02:16:38;18.58;;;4.35;;
55762;SDS011;42162;51.958;5.426;2024-03-25T02:19:04;16.60;;;3.58;;
55762;SDS011;42162;51.958;5.426;2024-03-25T02:21:30;11.82;;;2.65;;
55762;SDS011;42162;51.958;5.426;2024-03-25T02:23:56;20.92;;;3.40;;
55762;SDS011;42162;51.958;5.426;2024-03-25T02:26:26;11.63;;;3.20;;
55762;SDS011;42162;51.958;5.426;2024-03-25T02:28:56;21.80;;;3.15;;
55762;SDS011;42162;51.958;5.426;2024-03-25T02:31:22;19.90;;;3.30;;
55762;SDS011;42162;51.958;5.426;2024-03-25T02:33:48;19.10;;;3.25;;
55762;SDS011;42162;51.958;5.426;2024-03-25T02:36:14;10.27;;;2.20;;
55762;SDS011;42162;51.958;5.426;2024-03-25T02:38:43;17.70;;;2.92;;
55762;SDS011;42162;51.958;5.426;2024-03-25T02:41:09;20.17;;;4.07;;
55762;SDS011;42162;51.958;5.426;2024-03-25T02:43:38;20.85;;;3.22;;
55762;SDS011;42162;51.958;5.426;2024-03-25T02:46:08;12.13;;;3.30;;
55762;SDS011;42162;51.958;5.426;2024-03-25T02:48:34;17.33;;;4.32;;
55762;SDS011;42162;51.958;5.426;2024-03-25T02:51:00;16.05;;;3.45;;
55762;SDS011;42162;51.958;5.426;2024-03-25T02:53:26;16.33;;;3.20;;
55762;SDS011;42162;51.958;5.426;2024-03-25T02:55:52;14.98;;;2.72;;
55762;SDS011;42162;51.958;5.426;2024-03-25T02:58:19;22.02;;;6.97;;
55762;SDS011;42162;51.958;5.426;2024-03-25T03:00:45;13.48;;;3.03;;
55762;SDS011;42162;51.958;5.426;2024-03-25T03:03:11;13.35;;;2.70;;
55762;SDS011;42162;51.958;5.426;2024-03-25T03:05:37;15.77;;;3.08;;
55762;SDS011;42162;51.958;5.426;2024-03-25T03:08:03;16.60;;;3.13;;
55762;SDS011;42162;51.958;5.426;2024-03-25T03:10:33;14.77;;;2.55;;
55762;SDS011;42162;51.958;5.426;2024-03-25T03:12:59;12.52;;;3.13;;
55762;SDS011;42162;51.958;5.426;2024-03-25T03:15:32;9.80;;;2.72;;
55762;SDS011;42162;51.958;5.426;2024-03-25T03:17:58;14.98;;;2.58;;
55762;SDS011;42162;51.958;5.426;2024-03-25T03:20:24;16.10;;;2.95;;
55762;SDS011;42162;51.958;5.426;2024-03-25T03:22:51;10.85;;;3.55;;
55762;SDS011;42162;51.958;5.426;2024-03-25T03:25:17;16.58;;;3.10;;
55762;SDS011;42162;51.958;5.426;2024-03-25T03:27:43;15.50;;;2.83;;
55762;SDS011;42162;51.958;5.426;2024-03-25T03:30:09;11.25;;;2.55;;
55762;SDS011;42162;51.958;5.426;2024-03-25T03:32:36;14.45;;;3.30;;
55762;SDS011;42162;51.958;5.426;2024-03-25T03:35:02;11.05;;;2.78;;
55762;SDS011;42162;51.958;5.426;2024-03-25T03:37:28;12.25;;;2.53;;
55762;SDS011;42162;51.958;5.426;2024-03-25T03:39:54;10.60;;;2.35;;
55762;SDS011;42162;51.958;5.426;2024-03-25T03:42:20;19.30;;;3.35;;
55762;SDS011;42162;51.958;5.426;2024-03-25T03:44:46;12.48;;;2.63;;
55762;SDS011;42162;51.958;5.426;2024-03-25T03:47:13;11.80;;;2.67;;
55762;SDS011;42162;51.958;5.426;2024-03-25T03:49:39;15.73;;;2.97;;
55762;SDS011;42162;51.958;5.426;2024-03-25T03:52:05;11.40;;;2.92;;
55762;SDS011;42162;51.958;5.426;2024-03-25T03:54:31;16.85;;;2.80;;
55762;SDS011;42162;51.958;5.426;2024-03-25T03:56:57;7.75;;;2.72;;
55762;SDS011;42162;51.958;5.426;2024-03-25T03:59:23;9.55;;;2.45;;
55762;SDS011;42162;51.958;5.426;2024-03-25T04:01:49;11.25;;;3.17;;
55762;SDS011;42162;51.958;5.426;2024-03-25T04:04:15;15.55;;;3.20;;
55762;SDS011;42162;51.958;5.426;2024-03-25T04:06:41;12.13;;;2.90;;
55762;SDS011;42162;51.958;5.426;2024-03-25T04:09:07;11.65;;;3.20;;
55762;SDS011;42162;51.958;5.426;2024-03-25T04:11:36;11.68;;;2.60;;
55762;SDS011;42162;51.958;5.426;2024-03-25T04:14:02;10.50;;;3.03;;
55762;SDS011;42162;51.958;5.426;2024-03-25T04:16:28;8.50;;;2.80;;
55762;SDS011;42162;51.958;5.426;2024-03-25T04:18:58;8.55;;;2.28;;
55762;SDS011;42162;51.958;5.426;2024-03-25T04:21:24;10.23;;;3.00;;
55762;SDS011;42162;51.958;5.426;2024-03-25T04:23:50;9.77;;;2.92;;
55762;SDS011;42162;51.958;5.426;2024-03-25T04:26:15;8.95;;;2.38;;
55762;SDS011;42162;51.958;5.426;2024-03-25T04:28:41;14.88;;;4.45;;
55762;SDS011;42162;51.958;5.426;2024-03-25T04:31:08;7.72;;;2.70;;
55762;SDS011;42162;51.958;5.426;2024-03-25T04:33:34;15.60;;;3.67;;
55762;SDS011;42162;51.958;5.426;2024-03-25T04:36:01;10.77;;;2.75;;
55762;SDS011;42162;51.958;5.426;2024-03-25T04:38:28;16.48;;;4.05;;
55762;SDS011;42162;51.958;5.426;2024-03-25T04:40:56;11.95;;;2.90;;
55762;SDS011;42162;51.958;5.426;2024-03-25T04:43:22;16.77;;;3.97;;
55762;SDS011;42162;51.958;5.426;2024-03-25T04:45:48;12.35;;;3.38;;
55762;SDS011;42162;51.958;5.426;2024-03-25T04:48:14;17.80;;;3.45;;
55762;SDS011;42162;51.958;5.426;2024-03-25T04:50:40;9.38;;;3.03;;
55762;SDS011;42162;51.958;5.426;2024-03-25T04:53:06;12.05;;;3.38;;
55762;SDS011;42162;51.958;5.426;2024-03-25T04:55:32;11.75;;;3.33;;
55762;SDS011;42162;51.958;5.426;2024-03-25T04:57:58;13.45;;;3.30;;
55762;SDS011;42162;51.958;5.426;2024-03-25T05:00:24;13.68;;;4.43;;
55762;SDS011;42162;51.958;5.426;2024-03-25T05:02:50;15.70;;;3.08;;
55762;SDS011;42162;51.958;5.426;2024-03-25T05:05:16;11.80;;;4.07;;
55762;SDS011;42162;51.958;5.426;2024-03-25T05:07:43;16.45;;;3.42;;
55762;SDS011;42162;51.958;5.426;2024-03-25T05:10:10;12.55;;;2.90;;
55762;SDS011;42162;51.958;5.426;2024-03-25T05:12:36;15.68;;;3.50;;
55762;SDS011;42162;51.958;5.426;2024-03-25T05:15:06;16.05;;;3.38;;
55762;SDS011;42162;51.958;5.426;2024-03-25T05:17:34;8.68;;;3.08;;
55762;SDS011;42162;51.958;5.426;2024-03-25T05:20:01;11.10;;;3.38;;
55762;SDS011;42162;51.958;5.426;2024-03-25T05:22:27;12.95;;;2.90;;
55762;SDS011;42162;51.958;5.426;2024-03-25T05:24:53;13.10;;;3.72;;
55762;SDS011;42162;51.958;5.426;2024-03-25T05:27:19;13.73;;;4.60;;
55762;SDS011;42162;51.958;5.426;2024-03-25T05:29:49;7.47;;;3.25;;
55762;SDS011;42162;51.958;5.426;2024-03-25T05:32:15;6.45;;;2.63;;
55762;SDS011;42162;51.958;5.426;2024-03-25T05:34:48;13.10;;;3.50;;
55762;SDS011;42162;51.958;5.426;2024-03-25T05:37:16;9.45;;;3.15;;
55762;SDS011;42162;51.958;5.426;2024-03-25T05:39:43;12.20;;;3.70;;
55762;SDS011;42162;51.958;5.426;2024-03-25T05:42:09;10.32;;;3.85;;
55762;SDS011;42162;51.958;5.426;2024-03-25T05:44:35;16.15;;;4.00;;
55762;SDS011;42162;51.958;5.426;2024-03-25T05:47:01;13.65;;;3.67;;
55762;SDS011;42162;51.958;5.426;2024-03-25T05:49:28;14.82;;;3.80;;
55762;SDS011;42162;51.958;5.426;2024-03-25T05:51:57;10.85;;;3.50;;
55762;SDS011;42162;51.958;5.426;2024-03-25T05:54:28;12.13;;;3.85;;
55762;SDS011;42162;51.958;5.426;2024-03-25T05:56:54;13.00;;;3.47;;
55762;SDS011;42162;51.958;5.426;2024-03-25T05:59:20;13.35;;;3.97;;
55762;SDS011;42162;51.958;5.426;2024-03-25T06:01:49;13.50;;;3.53;;
55762;SDS011;42162;51.958;5.426;2024-03-25T06:04:15;10.25;;;3.63;;
55762;SDS011;42162;51.958;5.426;2024-03-25T06:06:41;12.38;;;3.22;;
55762;SDS011;42162;51.958;5.426;2024-03-25T06:09:09;15.52;;;4.07;;
55762;SDS011;42162;51.958;5.426;2024-03-25T06:11:36;12.85;;;3.70;;
55762;SDS011;42162;51.958;5.426;2024-03-25T06:14:02;12.68;;;4.32;;
55762;SDS011;42162;51.958;5.426;2024-03-25T06:16:28;16.20;;;3.40;;
55762;SDS011;42162;51.958;5.426;2024-03-25T06:18:54;10.57;;;2.85;;
55762;SDS011;42162;51.958;5.426;2024-03-25T06:21:20;20.95;;;4.25;;
55762;SDS011;42162;51.958;5.426;2024-03-25T06:23:47;9.70;;;3.53;;
55762;SDS011;42162;51.958;5.426;2024-03-25T06:26:13;10.00;;;2.75;;
55762;SDS011;42162;51.958;5.426;2024-03-25T06:28:39;11.38;;;3.78;;
55762;SDS011;42162;51.958;5.426;2024-03-25T06:31:05;11.60;;;3.88;;
55762;SDS011;42162;51.958;5.426;2024-03-25T06:33:50;14.52;;;4.10;;
55762;SDS011;42162;51.958;5.426;2024-03-25T06:36:34;15.52;;;3.97;;
55762;SDS011;42162;51.958;5.426;2024-03-25T06:39:00;20.42;;;3.97;;
55762;SDS011;42162;51.958;5.426;2024-03-25T06:41:32;15.40;;;4.18;;
55762;SDS011;42162;51.958;5.426;2024-03-25T06:43:58;11.07;;;3.92;;
55762;SDS011;42162;51.958;5.426;2024-03-25T06:46:24;15.32;;;4.65;;
55762;SDS011;42162;51.958;5.426;2024-03-25T06:48:50;12.13;;;3.72;;
55762;SDS011;42162;51.958;5.426;2024-03-25T06:51:17;13.10;;;4.13;;
55762;SDS011;42162;51.958;5.426;2024-03-25T06:53:44;19.48;;;5.07;;
55762;SDS011;42162;51.958;5.426;2024-03-25T06:56:11;17.48;;;5.30;;
55762;SDS011;42162;51.958;5.426;2024-03-25T06:58:37;16.80;;;4.65;;
55762;SDS011;42162;51.958;5.426;2024-03-25T07:01:04;12.23;;;4.07;;
55762;SDS011;42162;51.958;5.426;2024-03-25T07:03:32;16.88;;;4.20;;
55762;SDS011;42162;51.958;5.426;2024-03-25T07:05:59;17.27;;;4.85;;
55762;SDS011;42162;51.958;5.426;2024-03-25T07:08:26;14.60;;;4.88;;
55762;SDS011;42162;51.958;5.426;2024-03-25T07:10:59;11.27;;;4.45;;
55762;SDS011;42162;51.958;5.426;2024-03-25T07:13:25;12.70;;;3.92;;
55762;SDS011;42162;51.958;5.426;2024-03-25T07:15:51;20.00;;;4.55;;
55762;SDS011;42162;51.958;5.426;2024-03-25T07:18:17;17.38;;;5.25;;
55762;SDS011;42162;51.958;5.426;2024-03-25T07:20:43;16.80;;;4.47;;
55762;SDS011;42162;51.958;5.426;2024-03-25T07:23:10;16.77;;;5.30;;
55762;SDS011;42162;51.958;5.426;2024-03-25T07:25:36;16.98;;;5.88;;
55762;SDS011;42162;51.958;5.426;2024-03-25T07:28:03;17.13;;;4.93;;
55762;SDS011;42162;51.958;5.426;2024-03-25T07:30:29;21.73;;;5.30;;
55762;SDS011;42162;51.958;5.426;2024-03-25T07:32:56;14.93;;;4.15;;
55762;SDS011;42162;51.958;5.426;2024-03-25T07:35:23;14.88;;;3.97;;
55762;SDS011;42162;51.958;5.426;2024-03-25T07:37:49;17.35;;;4.90;;
55762;SDS011;42162;51.958;5.426;2024-03-25T07:40:20;18.65;;;4.78;;
55762;SDS011;42162;51.958;5.426;2024-03-25T07:42:48;16.30;;;4.30;;
55762;SDS011;42162;51.958;5.426;2024-03-25T07:45:14;22.75;;;4.43;;
55762;SDS011;42162;51.958;5.426;2024-03-25T07:47:41;16.10;;;4.28;;
55762;SDS011;42162;51.958;5.426;2024-03-25T07:50:08;18.92;;;4.55;;
55762;SDS011;42162;51.958;5.426;2024-03-25T07:52:34;14.23;;;4.30;;
55762;SDS011;42162;51.958;5.426;2024-03-25T07:55:06;15.93;;;4.50;;
55762;SDS011;42162;51.958;5.426;2024-03-25T07:57:35;20.30;;;4.80;;
55762;SDS011;42162;51.958;5.426;2024-03-25T08:00:02;13.57;;;4.28;;
55762;SDS011;42162;51.958;5.426;2024-03-25T08:02:37;14.68;;;4.22;;
55762;SDS011;42162;51.958;5.426;2024-03-25T08:05:03;13.98;;;5.07;;
55762;SDS011;42162;51.958;5.426;2024-03-25T08:07:33;14.45;;;4.32;;
55762;SDS011;42162;51.958;5.426;2024-03-25T08:09:59;17.98;;;5.00;;
55762;SDS011;42162;51.958;5.426;2024-03-25T08:12:26;14.68;;;4.15;;
55762;SDS011;42162;51.958;5.426;2024-03-25T08:14:52;13.27;;;4.22;;
55762;SDS011;42162;51.958;5.426;2024-03-25T08:17:18;28.02;;;5.25;;
55762;SDS011;42162;51.958;5.426;2024-03-25T08:19:44;8.52;;;3.50;;
55762;SDS011;42162;51.958;5.426;2024-03-25T08:22:10;15.90;;;4.13;;
55762;SDS011;42162;51.958;5.426;2024-03-25T08:24:36;11.65;;;3.45;;
55762;SDS011;42162;51.958;5.426;2024-03-25T08:27:02;17.20;;;3.97;;
55762;SDS011;42162;51.958;5.426;2024-03-25T08:29:28;11.10;;;3.88;;
55762;SDS011;42162;51.958;5.426;2024-03-25T08:31:54;14.77;;;4.13;;
55762;SDS011;42162;51.958;5.426;2024-03-25T08:34:21;14.30;;;4.00;;
55762;SDS011;42162;51.958;5.426;2024-03-25T08:36:47;17.50;;;4.63;;
55762;SDS011;42162;51.958;5.426;2024-03-25T08:39:13;16.25;;;3.88;;
55762;SDS011;42162;51.958;5.426;2024-03-25T08:41:39;12.38;;;3.70;;
55762;SDS011;42162;51.958;5.426;2024-03-25T08:44:05;15.18;;;4.30;;
55762;SDS011;42162;51.958;5.426;2024-03-25T08:46:31;11.00;;;4.30;;
55762;SDS011;42162;51.958;5.426;2024-03-25T08:48:58;13.57;;;4.25;;
55762;SDS011;42162;51.958;5.426;2024-03-25T08:51:24;15.95;;;4.30;;
55762;SDS011;42162;51.958;5.426;2024-03-25T08:53:50;12.45;;;3.95;;
55762;SDS011;42162;51.958;5.426;2024-03-25T08:56:16;12.70;;;3.78;;
55762;SDS011;42162;51.958;5.426;2024-03-25T08:58:41;13.90;;;3.90;;
55762;SDS011;42162;51.958;5.426;2024-03-25T09:01:07;12.25;;;3.88;;
55762;SDS011;42162;51.958;5.426;2024-03-25T09:03:36;17.13;;;3.72;;
55762;SDS011;42162;51.958;5.426;2024-03-25T09:06:02;15.68;;;4.20;;
55762;SDS011;42162;51.958;5.426;2024-03-25T09:08:28;14.75;;;3.95;;
55762;SDS011;42162;51.958;5.426;2024-03-25T09:10:54;16.65;;;4.55;;
55762;SDS011;42162;51.958;5.426;2024-03-25T09:13:31;13.68;;;4.05;;
55762;SDS011;42162;51.958;5.426;2024-03-25T09:15:57;14.10;;;3.70;;
55762;SDS011;42162;51.958;5.426;2024-03-25T09:18:23;14.60;;;3.88;;
55762;SDS011;42162;51.958;5.426;2024-03-25T09:20:52;16.77;;;3.20;;
55762;SDS011;42162;51.958;5.426;2024-03-25T09:23:18;11.25;;;2.80;;
55762;SDS011;42162;51.958;5.426;2024-03-25T09:25:51;12.60;;;3.55;;
55762;SDS011;42162;51.958;5.426;2024-03-25T09:28:18;9.32;;;2.92;;
55762;SDS011;42162;51.958;5.426;2024-03-25T09:30:44;19.65;;;3.65;;
55762;SDS011;42162;51.958;5.426;2024-03-25T09:33:10;15.18;;;3.53;;
55762;SDS011;42162;51.958;5.426;2024-03-25T09:35:36;13.63;;;4.03;;
55762;SDS011;42162;51.958;5.426;2024-03-25T09:38:02;13.55;;;3.40;;
55762;SDS011;42162;51.958;5.426;2024-03-25T09:40:29;16.98;;;4.05;;
55762;SDS011;42162;51.958;5.426;2024-03-25T09:42:57;13.48;;;3.65;;
55762;SDS011;42162;51.958;5.426;2024-03-25T09:45:28;11.57;;;4.13;;
55762;SDS011;42162;51.958;5.426;2024-03-25T09:47:55;14.07;;;3.40;;
55762;SDS011;42162;51.958;5.426;2024-03-25T09:50:21;13.00;;;4.00;;
55762;SDS011;42162;51.958;5.426;2024-03-25T09:52:48;10.93;;;4.00;;
55762;SDS011;42162;51.958;5.426;2024-03-25T09:55:15;14.43;;;4.38;;
55762;SDS011;42162;51.958;5.426;2024-03-25T09:57:44;9.80;;;3.30;;
55762;SDS011;42162;51.958;5.426;2024-03-25T10:00:11;12.38;;;4.10;;
55762;SDS011;42162;51.958;5.426;2024-03-25T10:02:38;14.32;;;4.82;;
55762;SDS011;42162;51.958;5.426;2024-03-25T10:05:06;18.70;;;3.88;;
55762;SDS011;42162;51.958;5.426;2024-03-25T10:07:33;15.25;;;4.75;;
55762;SDS011;42162;51.958;5.426;2024-03-25T10:10:03;9.32;;;3.63;;
55762;SDS011;42162;51.958;5.426;2024-03-25T10:12:32;13.43;;;3.67;;
55762;SDS011;42162;51.958;5.426;2024-03-25T10:14:58;13.50;;;4.22;;
55762;SDS011;42162;51.958;5.426;2024-03-25T10:17:25;10.75;;;4.47;;
55762;SDS011;42162;51.958;5.426;2024-03-25T10:19:53;9.38;;;3.92;;
55762;SDS011;42162;51.958;5.426;2024-03-25T10:22:20;14.52;;;4.75;;
55762;SDS011;42162;51.958;5.426;2024-03-25T10:24:47;11.77;;;4.25;;
55762;SDS011;42162;51.958;5.426;2024-03-25T10:27:20;17.27;;;4.75;;
55762;SDS011;42162;51.958;5.426;2024-03-25T10:29:47;9.63;;;4.95;;
55762;SDS011;42162;51.958;5.426;2024-03-25T10:32:22;9.45;;;4.40;;
55762;SDS011;42162;51.958;5.426;2024-03-25T10:34:50;10.13;;;3.70;;
55762;SDS011;42162;51.958;5.426;2024-03-25T10:37:17;9.63;;;4.32;;
55762;SDS011;42162;51.958;5.426;2024-03-25T10:39:48;13.52;;;5.15;;
55762;SDS011;42162;51.958;5.426;2024-03-25T10:42:18;11.02;;;4.40;;
55762;SDS011;42162;51.958;5.426;2024-03-25T10:44:45;10.15;;;4.53;;
55762;SDS011;42162;51.958;5.426;2024-03-25T10:47:19;10.10;;;4.40;;
55762;SDS011;42162;51.958;5.426;2024-03-25T10:49:57;11.18;;;4.03;;
55762;SDS011;42162;51.958;5.426;2024-03-25T10:52:26;10.32;;;3.58;;
55762;SDS011;42162;51.958;5.426;2024-03-25T10:54:52;9.35;;;3.67;;
55762;SDS011;42162;51.958;5.426;2024-03-25T10:57:20;10.27;;;4.10;;
55762;SDS011;42162;51.958;5.426;2024-03-25T10:59:46;10.60;;;4.25;;
55762;SDS011;42162;51.958;5.426;2024-03-25T11:02:13;9.35;;;3.92;;
55762;SDS011;42162;51.958;5.426;2024-03-25T11:04:41;15.60;;;4.32;;
55762;SDS011;42162;51.958;5.426;2024-03-25T11:07:12;8.27;;;3.55;;
55762;SDS011;42162;51.958;5.426;2024-03-25T11:09:39;8.85;;;4.30;;
55762;SDS011;42162;51.958;5.426;2024-03-25T11:12:07;10.07;;;3.35;;
55762;SDS011;42162;51.958;5.426;2024-03-25T11:14:35;7.72;;;3.40;;
55762;SDS011;42162;51.958;5.426;2024-03-25T11:17:02;8.20;;;3.40;;
55762;SDS011;42162;51.958;5.426;2024-03-25T11:19:28;8.52;;;3.60;;
55762;SDS011;42162;51.958;5.426;2024-03-25T11:22:08;11.85;;;3.80;;
55762;SDS011;42162;51.958;5.426;2024-03-25T11:24:36;11.95;;;3.50;;
55762;SDS011;42162;51.958;5.426;2024-03-25T11:27:05;5.45;;;3.33;;
55762;SDS011;42162;51.958;5.426;2024-03-25T11:29:32;9.70;;;4.45;;
55762;SDS011;42162;51.958;5.426;2024-03-25T11:32:00;11.25;;;4.50;;
55762;SDS011;42162;51.958;5.426;2024-03-25T11:34:29;11.38;;;4.00;;
55762;SDS011;42162;51.958;5.426;2024-03-25T11:36:55;10.10;;;3.58;;
55762;SDS011;42162;51.958;5.426;2024-03-25T11:39:23;8.98;;;2.78;;
55762;SDS011;42162;51.958;5.426;2024-03-25T11:41:52;8.05;;;3.15;;
55762;SDS011;42162;51.958;5.426;2024-03-25T11:44:18;7.15;;;3.15;;
55762;SDS011;42162;51.958;5.426;2024-03-25T11:46:45;9.02;;;3.25;;
55762;SDS011;42162;51.958;5.426;2024-03-25T11:49:15;7.90;;;3.03;;
55762;SDS011;42162;51.958;5.426;2024-03-25T11:51:43;8.43;;;2.97;;
55762;SDS011;42162;51.958;5.426;2024-03-25T11:54:12;8.48;;;3.63;;
55762;SDS011;42162;51.958;5.426;2024-03-25T11:56:39;7.20;;;2.70;;
55762;SDS011;42162;51.958;5.426;2024-03-25T11:59:06;5.68;;;2.70;;
55762;SDS011;42162;51.958;5.426;2024-03-25T12:01:33;7.05;;;2.40;;
55762;SDS011;42162;51.958;5.426;2024-03-25T12:04:20;9.20;;;2.00;;
55762;SDS011;42162;51.958;5.426;2024-03-25T12:06:47;6.15;;;2.40;;
55762;SDS011;42162;51.958;5.426;2024-03-25T12:09:13;6.32;;;2.30;;
55762;SDS011;42162;51.958;5.426;2024-03-25T12:11:58;4.35;;;2.30;;
55762;SDS011;42162;51.958;5.426;2024-03-25T12:14:24;7.38;;;2.70;;
55762;SDS011;42162;51.958;5.426;2024-03-25T12:16:55;3.42;;;1.73;;
55762;SDS011;42162;51.958;5.426;2024-03-25T12:19:24;7.30;;;1.90;;
55762;SDS011;42162;51.958;5.426;2024-03-25T12:21:50;5.90;;;2.38;;
55762;SDS011;42162;51.958;5.426;2024-03-25T12:24:24;6.97;;;2.50;;
55762;SDS011;42162;51.958;5.426;2024-03-25T12:26:50;6.82;;;2.90;;
55762;SDS011;42162;51.958;5.426;2024-03-25T12:29:17;7.65;;;2.72;;
55762;SDS011;42162;51.958;5.426;2024-03-25T12:31:43;8.32;;;2.85;;
55762;SDS011;42162;51.958;5.426;2024-03-25T12:34:18;5.68;;;3.15;;
55762;SDS011;42162;51.958;5.426;2024-03-25T12:36:44;7.43;;;2.30;;
55762;SDS011;42162;51.958;5.426;2024-03-25T12:39:15;9.82;;;2.72;;
55762;SDS011;42162;51.958;5.426;2024-03-25T12:41:42;8.27;;;2.92;;
55762;SDS011;42162;51.958;5.426;2024-03-25T12:44:08;10.10;;;3.50;;
55762;SDS011;42162;51.958;5.426;2024-03-25T12:46:37;7.63;;;3.17;;
55762;SDS011;42162;51.958;5.426;2024-03-25T12:49:05;5.10;;;2.50;;
55762;SDS011;42162;51.958;5.426;2024-03-25T12:51:32;10.05;;;3.42;;
55762;SDS011;42162;51.958;5.426;2024-03-25T12:53:58;8.25;;;3.50;;
55762;SDS011;42162;51.958;5.426;2024-03-25T12:56:24;8.57;;;3.15;;
55762;SDS011;42162;51.958;5.426;2024-03-25T12:58:50;6.70;;;3.13;;
55762;SDS011;42162;51.958;5.426;2024-03-25T13:01:17;6.60;;;3.15;;
55762;SDS011;42162;51.958;5.426;2024-03-25T13:03:43;5.78;;;3.00;;
55762;SDS011;42162;51.958;5.426;2024-03-25T13:06:10;7.43;;;3.03;;
55762;SDS011;42162;51.958;5.426;2024-03-25T13:08:37;5.88;;;2.80;;
55762;SDS011;42162;51.958;5.426;2024-03-25T13:11:03;8.63;;;3.35;;
55762;SDS011;42162;51.958;5.426;2024-03-25T13:13:29;6.47;;;3.10;;
55762;SDS011;42162;51.958;5.426;2024-03-25T13:15:55;8.15;;;2.88;;
55762;SDS011;42162;51.958;5.426;2024-03-25T13:18:21;5.45;;;2.75;;
55762;SDS011;42162;51.958;5.426;2024-03-25T13:20:47;6.32;;;3.00;;
55762;SDS011;42162;51.958;5.426;2024-03-25T13:23:13;8.07;;;2.50;;
55762;SDS011;42162;51.958;5.426;2024-03-25T13:25:39;6.78;;;4.07;;
55762;SDS011;42162;51.958;5.426;2024-03-25T13:28:05;6.20;;;2.60;;
55762;SDS011;42162;51.958;5.426;2024-03-25T13:30:31;7.20;;;2.70;;
55762;SDS011;42162;51.958;5.426;2024-03-25T13:32:57;6.30;;;2.88;;
55762;SDS011;42162;51.958;5.426;2024-03-25T13:35:23;6.78;;;2.45;;
55762;SDS011;42162;51.958;5.426;2024-03-25T13:37:49;6.38;;;2.47;;
55762;SDS011;42162;51.958;5.426;2024-03-25T13:40:15;7.60;;;2.50;;
55762;SDS011;42162;51.958;5.426;2024-03-25T13:42:41;6.72;;;2.65;;
55762;SDS011;42162;51.958;5.426;2024-03-25T13:45:08;7.22;;;2.58;;
55762;SDS011;42162;51.958;5.426;2024-03-25T13:47:35;7.90;;;2.92;;
55762;SDS011;42162;51.958;5.426;2024-03-25T13:50:04;11.68;;;2.90;;
55762;SDS011;42162;51.958;5.426;2024-03-25T13:52:33;7.10;;;3.35;;
55762;SDS011;42162;51.958;5.426;2024-03-25T13:55:00;6.18;;;3.15;;
55762;SDS011;42162;51.958;5.426;2024-03-25T13:57:27;5.20;;;3.05;;
55762;SDS011;42162;51.958;5.426;2024-03-25T13:59:53;9.30;;;2.72;;
55762;SDS011;42162;51.958;5.426;2024-03-25T14:02:19;6.47;;;2.92;;
55762;SDS011;42162;51.958;5.426;2024-03-25T14:04:45;5.82;;;2.20;;
55762;SDS011;42162;51.958;5.426;2024-03-25T14:07:11;6.47;;;2.85;;
55762;SDS011;42162;51.958;5.426;2024-03-25T14:09:37;6.72;;;3.03;;
55762;SDS011;42162;51.958;5.426;2024-03-25T14:12:03;8.93;;;3.25;;
55762;SDS011;42162;51.958;5.426;2024-03-25T14:14:29;6.55;;;3.22;;
55762;SDS011;42162;51.958;5.426;2024-03-25T14:16:55;8.10;;;3.53;;
55762;SDS011;42162;51.958;5.426;2024-03-25T14:19:21;9.43;;;3.28;;
55762;SDS011;42162;51.958;5.426;2024-03-25T14:21:48;7.57;;;3.22;;
55762;SDS011;42162;51.958;5.426;2024-03-25T14:24:14;9.20;;;3.97;;
55762;SDS011;42162;51.958;5.426;2024-03-25T14:26:40;8.18;;;2.85;;
55762;SDS011;42162;51.958;5.426;2024-03-25T14:29:06;8.57;;;3.47;;
55762;SDS011;42162;51.958;5.426;2024-03-25T14:31:32;11.13;;;3.42;;
55762;SDS011;42162;51.958;5.426;2024-03-25T14:33:58;6.93;;;3.33;;
55762;SDS011;42162;51.958;5.426;2024-03-25T14:36:24;6.32;;;2.55;;
55762;SDS011;42162;51.958;5.426;2024-03-25T14:38:50;8.80;;;3.72;;